KABY/ABY METAR and TAF weather

Enter ICAO airport designator
Station Type Date Time Source
KABY METAR 2021/05/12 01:53 UTC NOAA

KABY 120153Z AUTO 24005KT 10SM SCT120 22/20 A3007 RMK AO2 RAE35 SLP182 P0002 T02170200


Station Type Date Time Source
KABY Decoded METAR 2021/05/12 01:53 UTC NOAA

ALBANY SOUTHWEST GEORGIA, GA, United States (KABY) 31-32N 084-12W 58M
May 11, 2021 - 09:53 PM EDT / 2021.05.12 0153 UTC
Wind: from the WSW (240 degrees) at 6 MPH (5 KT):0
Visibility: 10 mile(s):0
Sky conditions: partly cloudy
Precipitation last hour: 0.02 inches
Temperature: 71.1 F (21.7 C)
Dew Point: 68.0 F (20.0 C)
Relative Humidity: 90%
Pressure (altimeter): 30.07 in. Hg (1018 hPa)
ob: KABY 120153Z AUTO 24005KT 10SM SCT120 22/20 A3007 RMK AO2 RAE35 SLP182 P0002 T02170200
cycle: 2

Station Type Date Time Source
KABY TAF 2021/05/11 18:36 UTC NOAA

TAF KABY 111734Z 1118/1218 27005KT P6SM SCT035
FM112200 19006KT P6SM -SHRA VCTS BKN040CB
FM120200 30003KT P6SM OVC250
FM120900 34003KT P6SM BKN010
FM121600 32008KT P6SM VCSH BKN080

Example: see airport list